sensor_id;sensor_type;location;lat;lon;timestamp;temperature;humidity
57709;SHT35;42558;52.388;13.390;2023-05-07T00:00:18;8.62;88.28
57709;SHT35;42558;52.388;13.390;2023-05-07T00:02:46;8.64;88.25
57709;SHT35;42558;52.388;13.390;2023-05-07T00:05:15;8.62;88.30
57709;SHT35;42558;52.388;13.390;2023-05-07T00:07:43;8.62;88.42
57709;SHT35;42558;52.388;13.390;2023-05-07T00:10:11;8.57;88.54
57709;SHT35;42558;52.388;13.390;2023-05-07T00:12:40;8.60;88.63
57709;SHT35;42558;52.388;13.390;2023-05-07T00:15:08;8.56;88.52
57709;SHT35;42558;52.388;13.390;2023-05-07T00:17:37;8.57;88.60
57709;SHT35;42558;52.388;13.390;2023-05-07T00:20:06;8.56;88.66
57709;SHT35;42558;52.388;13.390;2023-05-07T00:22:34;8.57;88.67
57709;SHT35;42558;52.388;13.390;2023-05-07T00:25:02;8.55;88.55
57709;SHT35;42558;52.388;13.390;2023-05-07T00:27:31;8.53;88.57
57709;SHT35;42558;52.388;13.390;2023-05-07T00:29:59;8.55;88.49
57709;SHT35;42558;52.388;13.390;2023-05-07T00:32:28;8.54;88.54
57709;SHT35;42558;52.388;13.390;2023-05-07T00:34:56;8.57;88.58
57709;SHT35;42558;52.388;13.390;2023-05-07T00:37:24;8.60;88.45
57709;SHT35;42558;52.388;13.390;2023-05-07T00:39:53;8.57;88.36
57709;SHT35;42558;52.388;13.390;2023-05-07T00:42:22;8.59;88.29
57709;SHT35;42558;52.388;13.390;2023-05-07T00:44:50;8.63;88.33
57709;SHT35;42558;52.388;13.390;2023-05-07T00:47:19;8.63;88.20
57709;SHT35;42558;52.388;13.390;2023-05-07T00:49:47;8.65;88.07
57709;SHT35;42558;52.388;13.390;2023-05-07T00:52:16;8.61;87.47
57709;SHT35;42558;52.388;13.390;2023-05-07T00:54:47;8.62;87.38
57709;SHT35;42558;52.388;13.390;2023-05-07T00:57:16;8.61;87.34
57709;SHT35;42558;52.388;13.390;2023-05-07T00:59:44;8.63;87.36
57709;SHT35;42558;52.388;13.390;2023-05-07T01:02:13;8.63;87.25
57709;SHT35;42558;52.388;13.390;2023-05-07T01:04:41;8.65;87.12
57709;SHT35;42558;52.388;13.390;2023-05-07T01:07:10;8.68;87.16
57709;SHT35;42558;52.388;13.390;2023-05-07T01:09:38;8.62;86.55
57709;SHT35;42558;52.388;13.390;2023-05-07T01:12:07;8.63;86.57
57709;SHT35;42558;52.388;13.390;2023-05-07T01:14:43;8.61;86.54
57709;SHT35;42558;52.388;13.390;2023-05-07T01:17:11;8.61;86.55
57709;SHT35;42558;52.388;13.390;2023-05-07T01:19:39;8.63;86.33
57709;SHT35;42558;52.388;13.390;2023-05-07T01:22:09;8.65;86.31
57709;SHT35;42558;52.388;13.390;2023-05-07T01:24:39;8.67;86.31
57709;SHT35;42558;52.388;13.390;2023-05-07T01:27:08;8.69;86.38
57709;SHT35;42558;52.388;13.390;2023-05-07T01:29:36;8.70;86.43
57709;SHT35;42558;52.388;13.390;2023-05-07T01:32:05;8.69;86.47
57709;SHT35;42558;52.388;13.390;2023-05-07T01:34:33;8.69;86.57
57709;SHT35;42558;52.388;13.390;2023-05-07T01:37:06;8.65;86.68
57709;SHT35;42558;52.388;13.390;2023-05-07T01:39:37;8.60;86.77
57709;SHT35;42558;52.388;13.390;2023-05-07T01:42:09;8.59;86.90
57709;SHT35;42558;52.388;13.390;2023-05-07T01:44:46;8.59;86.95
57709;SHT35;42558;52.388;13.390;2023-05-07T01:47:16;8.54;86.91
57709;SHT35;42558;52.388;13.390;2023-05-07T01:49:47;8.55;87.00
57709;SHT35;42558;52.388;13.390;2023-05-07T01:52:18;8.54;87.00
57709;SHT35;42558;52.388;13.390;2023-05-07T01:54:47;8.55;87.02
57709;SHT35;42558;52.388;13.390;2023-05-07T01:57:17;8.56;87.09
57709;SHT35;42558;52.388;13.390;2023-05-07T01:59:47;8.56;86.99
57709;SHT35;42558;52.388;13.390;2023-05-07T02:02:17;8.57;86.99
57709;SHT35;42558;52.388;13.390;2023-05-07T02:04:47;8.55;86.84
57709;SHT35;42558;52.388;13.390;2023-05-07T02:07:17;8.56;86.80
57709;SHT35;42558;52.388;13.390;2023-05-07T02:09:47;8.57;86.83
57709;SHT35;42558;52.388;13.390;2023-05-07T02:12:17;8.51;86.33
57709;SHT35;42558;52.388;13.390;2023-05-07T02:14:46;8.51;85.83
57709;SHT35;42558;52.388;13.390;2023-05-07T02:17:16;8.53;85.88
57709;SHT35;42558;52.388;13.390;2023-05-07T02:19:46;8.56;85.94
57709;SHT35;42558;52.388;13.390;2023-05-07T02:22:17;8.60;86.05
57709;SHT35;42558;52.388;13.390;2023-05-07T02:24:44;8.59;86.12
57709;SHT35;42558;52.388;13.390;2023-05-07T02:27:13;8.59;86.31
57709;SHT35;42558;52.388;13.390;2023-05-07T02:29:41;8.54;86.32
57709;SHT35;42558;52.388;13.390;2023-05-07T02:32:10;8.54;86.36
57709;SHT35;42558;52.388;13.390;2023-05-07T02:34:38;8.54;86.47
57709;SHT35;42558;52.388;13.390;2023-05-07T02:37:06;8.52;86.30
57709;SHT35;42558;52.388;13.390;2023-05-07T02:39:35;8.50;86.11
57709;SHT35;42558;52.388;13.390;2023-05-07T02:42:03;8.51;86.28
57709;SHT35;42558;52.388;13.390;2023-05-07T02:44:35;8.55;86.48
57709;SHT35;42558;52.388;13.390;2023-05-07T02:47:03;8.57;86.44
57709;SHT35;42558;52.388;13.390;2023-05-07T02:49:32;8.54;86.26
57709;SHT35;42558;52.388;13.390;2023-05-07T02:52:00;8.55;86.15
57709;SHT35;42558;52.388;13.390;2023-05-07T02:54:28;8.52;86.03
57709;SHT35;42558;52.388;13.390;2023-05-07T02:56:57;8.53;86.15
57709;SHT35;42558;52.388;13.390;2023-05-07T02:59:25;8.53;86.19
57709;SHT35;42558;52.388;13.390;2023-05-07T03:01:54;8.56;86.25
57709;SHT35;42558;52.388;13.390;2023-05-07T03:04:22;8.57;86.10
57709;SHT35;42558;52.388;13.390;2023-05-07T03:06:51;8.51;85.75
57709;SHT35;42558;52.388;13.390;2023-05-07T03:09:19;8.48;85.89
57709;SHT35;42558;52.388;13.390;2023-05-07T03:11:47;8.52;85.93
57709;SHT35;42558;52.388;13.390;2023-05-07T03:14:16;8.52;85.71
57709;SHT35;42558;52.388;13.390;2023-05-07T03:16:45;8.52;85.66
57709;SHT35;42558;52.388;13.390;2023-05-07T03:19:13;8.53;85.70
57709;SHT35;42558;52.388;13.390;2023-05-07T03:21:41;8.52;85.77
57709;SHT35;42558;52.388;13.390;2023-05-07T03:24:10;8.52;85.85
57709;SHT35;42558;52.388;13.390;2023-05-07T03:26:38;8.48;85.86
57709;SHT35;42558;52.388;13.390;2023-05-07T03:29:07;8.49;85.84
57709;SHT35;42558;52.388;13.390;2023-05-07T03:31:35;8.50;85.84
57709;SHT35;42558;52.388;13.390;2023-05-07T03:34:03;8.49;85.78
57709;SHT35;42558;52.388;13.390;2023-05-07T03:36:32;8.50;85.76
57709;SHT35;42558;52.388;13.390;2023-05-07T03:39:01;8.49;85.80
57709;SHT35;42558;52.388;13.390;2023-05-07T03:41:29;8.54;85.96
57709;SHT35;42558;52.388;13.390;2023-05-07T03:43:58;8.51;85.77
57709;SHT35;42558;52.388;13.390;2023-05-07T03:46:26;8.49;85.86
57709;SHT35;42558;52.388;13.390;2023-05-07T03:48:54;8.51;85.75
57709;SHT35;42558;52.388;13.390;2023-05-07T03:51:23;8.50;85.78
57709;SHT35;42558;52.388;13.390;2023-05-07T03:53:51;8.48;85.75
57709;SHT35;42558;52.388;13.390;2023-05-07T03:56:26;8.49;85.62
57709;SHT35;42558;52.388;13.390;2023-05-07T03:58:57;8.46;85.51
57709;SHT35;42558;52.388;13.390;2023-05-07T04:01:27;8.44;85.32
57709;SHT35;42558;52.388;13.390;2023-05-07T04:03:57;8.46;85.28
57709;SHT35;42558;52.388;13.390;2023-05-07T04:06:27;8.47;85.17
57709;SHT35;42558;52.388;13.390;2023-05-07T04:08:57;8.47;84.89
57709;SHT35;42558;52.388;13.390;2023-05-07T04:11:27;8.45;84.73
57709;SHT35;42558;52.388;13.390;2023-05-07T04:13:57;8.45;84.87
57709;SHT35;42558;52.388;13.390;2023-05-07T04:16:27;8.48;85.04
57709;SHT35;42558;52.388;13.390;2023-05-07T04:18:57;8.49;85.20
57709;SHT35;42558;52.388;13.390;2023-05-07T04:21:27;8.45;85.15
57709;SHT35;42558;52.388;13.390;2023-05-07T04:23:56;8.42;85.05
57709;SHT35;42558;52.388;13.390;2023-05-07T04:26:26;8.44;85.15
57709;SHT35;42558;52.388;13.390;2023-05-07T04:28:57;8.44;85.21
57709;SHT35;42558;52.388;13.390;2023-05-07T04:31:28;8.40;84.96
57709;SHT35;42558;52.388;13.390;2023-05-07T04:33:58;8.43;84.97
57709;SHT35;42558;52.388;13.390;2023-05-07T04:36:28;8.45;84.93
57709;SHT35;42558;52.388;13.390;2023-05-07T04:38:58;8.46;84.87
57709;SHT35;42558;52.388;13.390;2023-05-07T04:41:28;8.48;84.84
57709;SHT35;42558;52.388;13.390;2023-05-07T04:43:58;8.47;84.58
57709;SHT35;42558;52.388;13.390;2023-05-07T04:46:28;8.47;84.60
57709;SHT35;42558;52.388;13.390;2023-05-07T04:48:58;8.45;84.70
57709;SHT35;42558;52.388;13.390;2023-05-07T04:51:28;8.48;84.79
57709;SHT35;42558;52.388;13.390;2023-05-07T04:53:58;8.54;84.80
57709;SHT35;42558;52.388;13.390;2023-05-07T04:56:28;8.49;84.69
57709;SHT35;42558;52.388;13.390;2023-05-07T04:59:01;8.55;84.82
57709;SHT35;42558;52.388;13.390;2023-05-07T05:01:31;8.48;84.73
57709;SHT35;42558;52.388;13.390;2023-05-07T05:04:01;8.44;84.69
57709;SHT35;42558;52.388;13.390;2023-05-07T05:06:31;8.45;84.68
57709;SHT35;42558;52.388;13.390;2023-05-07T05:09:01;8.46;84.78
57709;SHT35;42558;52.388;13.390;2023-05-07T05:11:31;8.50;84.85
57709;SHT35;42558;52.388;13.390;2023-05-07T05:14:01;8.52;84.74
57709;SHT35;42558;52.388;13.390;2023-05-07T05:16:31;8.53;84.61
57709;SHT35;42558;52.388;13.390;2023-05-07T05:19:01;8.48;83.85
57709;SHT35;42558;52.388;13.390;2023-05-07T05:21:32;8.52;83.77
57709;SHT35;42558;52.388;13.390;2023-05-07T05:24:01;8.59;83.70
57709;SHT35;42558;52.388;13.390;2023-05-07T05:26:32;8.57;83.07
57709;SHT35;42558;52.388;13.390;2023-05-07T05:29:01;8.63;82.81
57709;SHT35;42558;52.388;13.390;2023-05-07T05:31:31;8.66;82.63
57709;SHT35;42558;52.388;13.390;2023-05-07T05:34:02;8.70;82.60
57709;SHT35;42558;52.388;13.390;2023-05-07T05:36:32;8.74;82.70
57709;SHT35;42558;52.388;13.390;2023-05-07T05:39:02;8.72;82.97
57709;SHT35;42558;52.388;13.390;2023-05-07T05:41:33;8.70;82.57
57709;SHT35;42558;52.388;13.390;2023-05-07T05:44:03;8.70;82.47
57709;SHT35;42558;52.388;13.390;2023-05-07T05:46:33;8.73;82.32
57709;SHT35;42558;52.388;13.390;2023-05-07T05:49:05;8.80;81.88
57709;SHT35;42558;52.388;13.390;2023-05-07T05:51:35;8.91;81.75
57709;SHT35;42558;52.388;13.390;2023-05-07T05:54:03;8.93;81.65
57709;SHT35;42558;52.388;13.390;2023-05-07T05:56:32;8.98;81.47
57709;SHT35;42558;52.388;13.390;2023-05-07T05:59:00;8.93;81.58
57709;SHT35;42558;52.388;13.390;2023-05-07T06:01:29;8.94;81.54
57709;SHT35;42558;52.388;13.390;2023-05-07T06:03:57;9.05;81.49
57709;SHT35;42558;52.388;13.390;2023-05-07T06:06:25;9.22;81.48
57709;SHT35;42558;52.388;13.390;2023-05-07T06:08:54;9.42;81.10
57709;SHT35;42558;52.388;13.390;2023-05-07T06:11:22;9.74;80.72
57709;SHT35;42558;52.388;13.390;2023-05-07T06:13:51;9.92;79.01
57709;SHT35;42558;52.388;13.390;2023-05-07T06:16:19;9.99;78.07
57709;SHT35;42558;52.388;13.390;2023-05-07T06:18:47;9.97;78.21
57709;SHT35;42558;52.388;13.390;2023-05-07T06:21:16;9.84;78.17
57709;SHT35;42558;52.388;13.390;2023-05-07T06:23:44;9.62;78.58
57709;SHT35;42558;52.388;13.390;2023-05-07T06:26:13;9.49;79.08
57709;SHT35;42558;52.388;13.390;2023-05-07T06:28:41;9.54;79.46
57709;SHT35;42558;52.388;13.390;2023-05-07T06:33:44;9.40;79.22
57709;SHT35;42558;52.388;13.390;2023-05-07T06:36:14;9.36;79.36
57709;SHT35;42558;52.388;13.390;2023-05-07T06:38:44;9.42;79.67
57709;SHT35;42558;52.388;13.390;2023-05-07T06:41:14;9.39;79.64
57709;SHT35;42558;52.388;13.390;2023-05-07T06:43:44;9.40;79.97
57709;SHT35;42558;52.388;13.390;2023-05-07T06:46:15;9.51;79.43
57709;SHT35;42558;52.388;13.390;2023-05-07T06:48:45;9.62;79.28
57709;SHT35;42558;52.388;13.390;2023-05-07T06:51:15;9.72;79.36
57709;SHT35;42558;52.388;13.390;2023-05-07T06:53:45;9.71;78.77
57709;SHT35;42558;52.388;13.390;2023-05-07T06:56:15;9.73;78.98
57709;SHT35;42558;52.388;13.390;2023-05-07T06:58:45;9.73;78.59
57709;SHT35;42558;52.388;13.390;2023-05-07T07:01:15;9.75;79.05
57709;SHT35;42558;52.388;13.390;2023-05-07T07:03:44;9.79;78.73
57709;SHT35;42558;52.388;13.390;2023-05-07T07:06:14;9.93;79.16
57709;SHT35;42558;52.388;13.390;2023-05-07T07:08:44;10.10;78.86
57709;SHT35;42558;52.388;13.390;2023-05-07T07:11:14;10.15;78.49
57709;SHT35;42558;52.388;13.390;2023-05-07T07:13:45;10.03;78.04
57709;SHT35;42558;52.388;13.390;2023-05-07T07:16:14;9.79;77.94
57709;SHT35;42558;52.388;13.390;2023-05-07T07:18:44;10.08;77.98
57709;SHT35;42558;52.388;13.390;2023-05-07T07:21:14;10.86;76.84
57709;SHT35;42558;52.388;13.390;2023-05-07T07:23:44;10.72;74.88
57709;SHT35;42558;52.388;13.390;2023-05-07T07:26:14;10.61;75.67
57709;SHT35;42558;52.388;13.390;2023-05-07T07:28:47;10.88;75.34
57709;SHT35;42558;52.388;13.390;2023-05-07T07:31:17;10.93;75.26
57709;SHT35;42558;52.388;13.390;2023-05-07T07:33:47;11.15;74.34
57709;SHT35;42558;52.388;13.390;2023-05-07T07:36:17;11.17;74.55
57709;SHT35;42558;52.388;13.390;2023-05-07T07:38:47;11.88;73.73
57709;SHT35;42558;52.388;13.390;2023-05-07T07:41:16;12.14;72.24
57709;SHT35;42558;52.388;13.390;2023-05-07T07:43:44;12.56;70.58
57709;SHT35;42558;52.388;13.390;2023-05-07T07:46:15;12.64;69.92
57709;SHT35;42558;52.388;13.390;2023-05-07T07:48:44;11.77;70.37
57709;SHT35;42558;52.388;13.390;2023-05-07T07:51:12;11.75;71.77
57709;SHT35;42558;52.388;13.390;2023-05-07T07:53:41;12.32;70.21
57709;SHT35;42558;52.388;13.390;2023-05-07T07:56:09;12.35;68.87
57709;SHT35;42558;52.388;13.390;2023-05-07T07:58:38;12.03;69.96
57709;SHT35;42558;52.388;13.390;2023-05-07T08:01:07;12.35;70.01
57709;SHT35;42558;52.388;13.390;2023-05-07T08:03:34;12.48;69.35
57709;SHT35;42558;52.388;13.390;2023-05-07T08:06:03;12.01;69.91
57709;SHT35;42558;52.388;13.390;2023-05-07T08:08:31;11.71;70.68
57709;SHT35;42558;52.388;13.390;2023-05-07T08:11:00;12.11;70.35
57709;SHT35;42558;52.388;13.390;2023-05-07T08:13:28;12.62;68.45
57709;SHT35;42558;52.388;13.390;2023-05-07T08:15:56;13.08;69.32
57709;SHT35;42558;52.388;13.390;2023-05-07T08:18:25;13.91;65.76
57709;SHT35;42558;52.388;13.390;2023-05-07T08:20:57;13.60;64.84
57709;SHT35;42558;52.388;13.390;2023-05-07T08:23:27;13.08;66.73
57709;SHT35;42558;52.388;13.390;2023-05-07T08:25:57;13.10;66.52
57709;SHT35;42558;52.388;13.390;2023-05-07T08:28:27;13.16;66.45
57709;SHT35;42558;52.388;13.390;2023-05-07T08:30:56;12.98;66.78
57709;SHT35;42558;52.388;13.390;2023-05-07T08:33:29;13.03;67.09
57709;SHT35;42558;52.388;13.390;2023-05-07T08:35:59;13.44;65.22
57709;SHT35;42558;52.388;13.390;2023-05-07T08:38:29;13.71;65.71
57709;SHT35;42558;52.388;13.390;2023-05-07T08:40:58;14.11;62.68
57709;SHT35;42558;52.388;13.390;2023-05-07T08:43:28;13.67;63.42
57709;SHT35;42558;52.388;13.390;2023-05-07T08:46:02;13.14;65.68
57709;SHT35;42558;52.388;13.390;2023-05-07T08:48:38;13.09;66.15
57709;SHT35;42558;52.388;13.390;2023-05-07T08:51:13;12.95;66.52
57709;SHT35;42558;52.388;13.390;2023-05-07T08:53:48;13.73;65.00
57709;SHT35;42558;52.388;13.390;2023-05-07T08:56:19;14.00;64.91
57709;SHT35;42558;52.388;13.390;2023-05-07T08:58:51;13.51;63.65
57709;SHT35;42558;52.388;13.390;2023-05-07T09:01:20;13.40;63.68
57709;SHT35;42558;52.388;13.390;2023-05-07T09:03:50;12.98;64.95
57709;SHT35;42558;52.388;13.390;2023-05-07T09:06:22;13.25;65.16
57709;SHT35;42558;52.388;13.390;2023-05-07T09:08:53;13.41;64.54
57709;SHT35;42558;52.388;13.390;2023-05-07T09:11:24;13.17;64.75
57709;SHT35;42558;52.388;13.390;2023-05-07T09:13:54;13.21;64.55
57709;SHT35;42558;52.388;13.390;2023-05-07T09:16:29;13.04;65.15
57709;SHT35;42558;52.388;13.390;2023-05-07T09:19:00;13.58;64.01
57709;SHT35;42558;52.388;13.390;2023-05-07T09:21:30;14.27;62.01
57709;SHT35;42558;52.388;13.390;2023-05-07T09:24:00;14.97;60.91
57709;SHT35;42558;52.388;13.390;2023-05-07T09:26:30;14.85;58.51
57709;SHT35;42558;52.388;13.390;2023-05-07T09:29:02;14.07;60.74
57709;SHT35;42558;52.388;13.390;2023-05-07T09:31:32;14.02;61.28
57709;SHT35;42558;52.388;13.390;2023-05-07T09:34:05;14.30;60.63
57709;SHT35;42558;52.388;13.390;2023-05-07T09:36:35;14.38;59.76
57709;SHT35;42558;52.388;13.390;2023-05-07T09:39:03;14.39;60.69
57709;SHT35;42558;52.388;13.390;2023-05-07T09:41:32;14.49;60.12
57709;SHT35;42558;52.388;13.390;2023-05-07T09:44:00;14.38;60.27
57709;SHT35;42558;52.388;13.390;2023-05-07T09:46:29;14.23;61.01
57709;SHT35;42558;52.388;13.390;2023-05-07T09:49:00;14.20;60.02
57709;SHT35;42558;52.388;13.390;2023-05-07T09:51:39;13.80;60.33
57709;SHT35;42558;52.388;13.390;2023-05-07T09:54:15;14.33;60.35
57709;SHT35;42558;52.388;13.390;2023-05-07T09:56:47;14.84;59.16
57709;SHT35;42558;52.388;13.390;2023-05-07T09:59:18;15.10;57.89
57709;SHT35;42558;52.388;13.390;2023-05-07T10:01:50;14.64;60.94
57709;SHT35;42558;52.388;13.390;2023-05-07T10:04:25;14.20;62.18
57709;SHT35;42558;52.388;13.390;2023-05-07T10:06:56;14.22;63.37
57709;SHT35;42558;52.388;13.390;2023-05-07T10:09:28;14.57;63.39
57709;SHT35;42558;52.388;13.390;2023-05-07T10:11:59;14.45;62.68
57709;SHT35;42558;52.388;13.390;2023-05-07T10:14:30;14.77;64.08
57709;SHT35;42558;52.388;13.390;2023-05-07T10:16:58;14.70;62.16
57709;SHT35;42558;52.388;13.390;2023-05-07T10:19:27;14.34;62.70
57709;SHT35;42558;52.388;13.390;2023-05-07T10:22:05;13.85;62.82
57709;SHT35;42558;52.388;13.390;2023-05-07T10:24:37;14.45;62.38
57709;SHT35;42558;52.388;13.390;2023-05-07T10:27:08;14.35;61.57
57709;SHT35;42558;52.388;13.390;2023-05-07T10:32:33;13.87;63.13
57709;SHT35;42558;52.388;13.390;2023-05-07T10:35:19;13.72;63.47
57709;SHT35;42558;52.388;13.390;2023-05-07T10:37:54;13.60;63.77
57709;SHT35;42558;52.388;13.390;2023-05-07T10:40:25;13.63;63.89
57709;SHT35;42558;52.388;13.390;2023-05-07T10:42:59;13.98;64.15
57709;SHT35;42558;52.388;13.390;2023-05-07T10:45:31;13.76;63.47
57709;SHT35;42558;52.388;13.390;2023-05-07T10:56:39;14.15;62.60
57709;SHT35;42558;52.388;13.390;2023-05-07T11:02:01;14.05;63.59
57709;SHT35;42558;52.388;13.390;2023-05-07T11:04:33;14.54;61.80
57709;SHT35;42558;52.388;13.390;2023-05-07T11:15:08;15.88;59.47
57709;SHT35;42558;52.388;13.390;2023-05-07T11:17:55;15.84;58.48
57709;SHT35;42558;52.388;13.390;2023-05-07T11:26:03;14.85;58.90
57709;SHT35;42558;52.388;13.390;2023-05-07T11:28:38;14.90;60.37
57709;SHT35;42558;52.388;13.390;2023-05-07T11:31:13;15.31;59.24
57709;SHT35;42558;52.388;13.390;2023-05-07T11:33:43;15.13;59.15
57709;SHT35;42558;52.388;13.390;2023-05-07T11:36:13;15.28;59.11
57709;SHT35;42558;52.388;13.390;2023-05-07T11:38:44;15.27;59.04
57709;SHT35;42558;52.388;13.390;2023-05-07T11:41:15;15.96;56.98
57709;SHT35;42558;52.388;13.390;2023-05-07T11:43:53;16.24;57.05
57709;SHT35;42558;52.388;13.390;2023-05-07T11:46:28;16.15;56.62
57709;SHT35;42558;52.388;13.390;2023-05-07T11:48:58;16.31;57.03
57709;SHT35;42558;52.388;13.390;2023-05-07T11:51:30;16.93;57.03
57709;SHT35;42558;52.388;13.390;2023-05-07T11:53:59;16.92;55.52
57709;SHT35;42558;52.388;13.390;2023-05-07T11:56:28;16.63;57.43
57709;SHT35;42558;52.388;13.390;2023-05-07T11:58:58;16.03;56.68
57709;SHT35;42558;52.388;13.390;2023-05-07T12:01:27;15.26;58.15
57709;SHT35;42558;52.388;13.390;2023-05-07T12:03:57;14.98;58.90
57709;SHT35;42558;52.388;13.390;2023-05-07T12:06:27;14.78;59.40
57709;SHT35;42558;52.388;13.390;2023-05-07T12:08:57;14.98;59.44
57709;SHT35;42558;52.388;13.390;2023-05-07T12:11:27;15.28;58.79
57709;SHT35;42558;52.388;13.390;2023-05-07T12:13:56;15.53;57.81
57709;SHT35;42558;52.388;13.390;2023-05-07T12:16:27;15.57;56.52
57709;SHT35;42558;52.388;13.390;2023-05-07T12:18:55;15.66;56.01
57709;SHT35;42558;52.388;13.390;2023-05-07T12:21:25;15.95;55.50
57709;SHT35;42558;52.388;13.390;2023-05-07T12:23:56;16.10;54.19
57709;SHT35;42558;52.388;13.390;2023-05-07T12:26:26;15.80;54.92
57709;SHT35;42558;52.388;13.390;2023-05-07T12:28:57;15.28;54.88
57709;SHT35;42558;52.388;13.390;2023-05-07T12:31:26;15.45;55.97
57709;SHT35;42558;52.388;13.390;2023-05-07T12:33:56;15.54;55.29
57709;SHT35;42558;52.388;13.390;2023-05-07T12:36:26;15.30;55.98
57709;SHT35;42558;52.388;13.390;2023-05-07T12:39:08;15.30;56.81
57709;SHT35;42558;52.388;13.390;2023-05-07T12:41:54;15.36;56.42
57709;SHT35;42558;52.388;13.390;2023-05-07T12:44:30;15.85;57.63
57709;SHT35;42558;52.388;13.390;2023-05-07T12:47:02;16.15;55.52
57709;SHT35;42558;52.388;13.390;2023-05-07T12:49:34;16.32;55.20
57709;SHT35;42558;52.388;13.390;2023-05-07T12:52:06;16.89;54.05
57709;SHT35;42558;52.388;13.390;2023-05-07T12:54:37;16.74;53.97
57709;SHT35;42558;52.388;13.390;2023-05-07T12:57:09;15.90;55.30
57709;SHT35;42558;52.388;13.390;2023-05-07T12:59:40;15.26;56.41
57709;SHT35;42558;52.388;13.390;2023-05-07T13:02:11;15.31;57.00
57709;SHT35;42558;52.388;13.390;2023-05-07T13:04:41;15.48;56.15
57709;SHT35;42558;52.388;13.390;2023-05-07T13:07:11;15.89;55.52
57709;SHT35;42558;52.388;13.390;2023-05-07T13:09:41;16.24;54.95
57709;SHT35;42558;52.388;13.390;2023-05-07T13:12:11;16.33;55.10
57709;SHT35;42558;52.388;13.390;2023-05-07T13:14:42;16.38;54.08
57709;SHT35;42558;52.388;13.390;2023-05-07T13:17:10;16.22;53.54
57709;SHT35;42558;52.388;13.390;2023-05-07T13:19:37;16.52;53.64
57709;SHT35;42558;52.388;13.390;2023-05-07T13:22:07;16.75;53.36
57709;SHT35;42558;52.388;13.390;2023-05-07T13:24:36;16.96;52.65
57709;SHT35;42558;52.388;13.390;2023-05-07T13:27:06;16.79;53.27
57709;SHT35;42558;52.388;13.390;2023-05-07T13:29:36;17.50;53.15
57709;SHT35;42558;52.388;13.390;2023-05-07T13:32:06;17.56;51.24
57709;SHT35;42558;52.388;13.390;2023-05-07T13:34:36;17.17;52.07
57709;SHT35;42558;52.388;13.390;2023-05-07T13:37:06;16.78;53.19
57709;SHT35;42558;52.388;13.390;2023-05-07T13:39:39;16.85;54.08
57709;SHT35;42558;52.388;13.390;2023-05-07T13:42:10;16.61;54.19
57709;SHT35;42558;52.388;13.390;2023-05-07T13:44:44;16.48;54.54
57709;SHT35;42558;52.388;13.390;2023-05-07T13:47:13;16.61;53.93
57709;SHT35;42558;52.388;13.390;2023-05-07T13:49:43;16.67;54.42
57709;SHT35;42558;52.388;13.390;2023-05-07T13:52:12;16.35;54.14
57709;SHT35;42558;52.388;13.390;2023-05-07T13:54:42;16.31;55.64
57709;SHT35;42558;52.388;13.390;2023-05-07T13:57:12;15.92;54.55
57709;SHT35;42558;52.388;13.390;2023-05-07T13:59:42;15.55;56.04
57709;SHT35;42558;52.388;13.390;2023-05-07T14:02:12;15.73;56.22
57709;SHT35;42558;52.388;13.390;2023-05-07T14:04:42;15.79;55.65
57709;SHT35;42558;52.388;13.390;2023-05-07T14:07:12;15.76;56.06
57709;SHT35;42558;52.388;13.390;2023-05-07T14:09:42;15.64;55.71
57709;SHT35;42558;52.388;13.390;2023-05-07T14:12:12;15.56;55.95
57709;SHT35;42558;52.388;13.390;2023-05-07T14:14:44;15.62;56.49
57709;SHT35;42558;52.388;13.390;2023-05-07T14:17:16;15.67;56.52
57709;SHT35;42558;52.388;13.390;2023-05-07T14:19:47;15.39;56.02
57709;SHT35;42558;52.388;13.390;2023-05-07T14:22:17;15.43;55.22
57709;SHT35;42558;52.388;13.390;2023-05-07T14:24:47;15.39;55.69
57709;SHT35;42558;52.388;13.390;2023-05-07T14:27:33;15.51;54.08
57709;SHT35;42558;52.388;13.390;2023-05-07T14:30:04;16.06;54.25
57709;SHT35;42558;52.388;13.390;2023-05-07T14:32:33;16.73;53.15
57709;SHT35;42558;52.388;13.390;2023-05-07T14:35:04;16.88;52.39
57709;SHT35;42558;52.388;13.390;2023-05-07T14:37:34;17.21;51.59
57709;SHT35;42558;52.388;13.390;2023-05-07T14:40:04;17.62;51.42
57709;SHT35;42558;52.388;13.390;2023-05-07T14:42:35;17.78;50.13
57709;SHT35;42558;52.388;13.390;2023-05-07T14:45:05;16.93;51.47
57709;SHT35;42558;52.388;13.390;2023-05-07T14:47:36;16.81;51.71
57709;SHT35;42558;52.388;13.390;2023-05-07T14:50:06;17.00;50.99
57709;SHT35;42558;52.388;13.390;2023-05-07T14:52:37;17.30;50.71
57709;SHT35;42558;52.388;13.390;2023-05-07T14:55:07;16.87;51.51
57709;SHT35;42558;52.388;13.390;2023-05-07T14:57:38;16.74;52.62
57709;SHT35;42558;52.388;13.390;2023-05-07T15:00:08;17.16;52.29
57709;SHT35;42558;52.388;13.390;2023-05-07T15:02:39;17.37;51.84
57709;SHT35;42558;52.388;13.390;2023-05-07T15:05:10;17.70;51.27
57709;SHT35;42558;52.388;13.390;2023-05-07T15:07:40;17.29;51.10
57709;SHT35;42558;52.388;13.390;2023-05-07T15:10:10;17.24;51.98
57709;SHT35;42558;52.388;13.390;2023-05-07T15:12:40;17.41;51.39
57709;SHT35;42558;52.388;13.390;2023-05-07T15:15:10;17.38;51.41
57709;SHT35;42558;52.388;13.390;2023-05-07T15:17:40;17.07;51.76
57709;SHT35;42558;52.388;13.390;2023-05-07T15:20:10;16.92;52.22
57709;SHT35;42558;52.388;13.390;2023-05-07T15:22:40;16.82;52.94
57709;SHT35;42558;52.388;13.390;2023-05-07T15:25:09;17.07;52.82
57709;SHT35;42558;52.388;13.390;2023-05-07T15:27:37;17.01;52.24
57709;SHT35;42558;52.388;13.390;2023-05-07T15:30:06;16.93;52.99
57709;SHT35;42558;52.388;13.390;2023-05-07T15:32:37;17.06;52.60
57709;SHT35;42558;52.388;13.390;2023-05-07T15:35:05;17.03;52.87
57709;SHT35;42558;52.388;13.390;2023-05-07T15:37:37;16.69;53.23
57709;SHT35;42558;52.388;13.390;2023-05-07T15:40:07;16.26;54.15
57709;SHT35;42558;52.388;13.390;2023-05-07T15:42:37;16.03;54.78
57709;SHT35;42558;52.388;13.390;2023-05-07T15:45:07;16.05;54.86
57709;SHT35;42558;52.388;13.390;2023-05-07T15:47:39;16.22;54.71
57709;SHT35;42558;52.388;13.390;2023-05-07T15:50:09;16.12;54.17
57709;SHT35;42558;52.388;13.390;2023-05-07T15:52:39;15.83;54.60
57709;SHT35;42558;52.388;13.390;2023-05-07T15:55:10;15.91;54.73
57709;SHT35;42558;52.388;13.390;2023-05-07T15:57:40;16.39;53.87
57709;SHT35;42558;52.388;13.390;2023-05-07T16:00:10;16.55;53.54
57709;SHT35;42558;52.388;13.390;2023-05-07T16:02:42;16.44;53.42
57709;SHT35;42558;52.388;13.390;2023-05-07T16:05:13;16.30;54.03
57709;SHT35;42558;52.388;13.390;2023-05-07T16:07:43;16.20;54.01
57709;SHT35;42558;52.388;13.390;2023-05-07T16:10:13;15.75;55.13